San Juan, PR

12:02 AM AST on May 30, 2017 (GMT -0400)
kp4.Levittown Lakes PR | | Change Station

Elev 24 ft 18.44 °N, 66.17 °W | Updated 28 seconds ago

Rain
Rain
77.2 °F
Feels Like 79 °F
N
0.0
Wind Variable Wind from West
Gusts 0.0 mph

Today
High -- | Low -- °F
--% Chance of Precip.
Yesterday
High -- | Low -- °F
Precip. -- in
Pressure 30.12 in
Visibility 8.0 miles
Clouds Scattered Clouds 1300 ft
Mostly Cloudy 2500 ft
Overcast 4100 ft
Heat Index 79 °F
Dew Point 75 °F
Humidity 92%
Rainfall 0.00 in
Snow Depth Not available.
5:47 AM 6:56 PM
Waxing Crescent, 25% visible
METAR TJSJ 300356Z 14004KT 8SM TSRA SCT013 BKN025CB OVC041 26/24 A3013 RMK AO2 SLP200 FRQ LTGICCC SE TS SE MOV W P0017 T02610244 403060239 $
Pressure 30.12 in
Visibility 8.0 miles
Clouds Scattered Clouds 1300 ft
Mostly Cloudy 2500 ft
Overcast 4100 ft
Heat Index 79 °F
Dew Point 75 °F
Humidity 92%
Rainfall 0.00 in
Snow Depth Not available.
5:47 AM 6:56 PM
Waxing Crescent, 25% visible
METAR TJSJ 300356Z 14004KT 8SM TSRA SCT013 BKN025CB OVC041 26/24 A3013 RMK AO2 SLP200 FRQ LTGICCC SE TS SE MOV W P0017 T02610244 403060239 $

Get Your Daily Forecast Email!

Thanks for signing up!

Be on the lookout for a verification email in your inbox.

You'll start receiving severe weather alerts in your inbox..

×

10-Day Weather Forecast

Almanac

Astronomy

May. 30, 2017 Rise Set
Actual Time
Civil Twilight
Nautical Twilight
Astronomical Twilight
Moon
Length of Visible Light
Length of Day
Tomorrow will be .
, % of the Moon is Illuminated

Today's Extremes

State Highs State Lows

Community

WunderPhotos

Category 6

Welcome to Category 6. This is the collective home for Weather Underground's featured writeups by Dr. Jeff Masters (right), Bob Henson (left), Chris Burt, and other regular contributors.

Nearby

Air Quality

  Air Quality AQ Index Pollutant
Not available.

Snow Depth

Station Depth Elevation

Earthquake Activity

City Distance Mag. Time & Date
Minimum magnitude displayed is 2.5.

Coastal Water Temperatures

Place Temperature

Stations

Nearby Weather Stations

Station Location Temp. Windchill Dew Point Humidity Wind Precip. Elev Updated Type
                   

Watches & Warnings

Flood Watch / Flood Statement
Issued: National Weather Service


Acotto/acotto



Acotto/acotto